Time;durP1;ratioP1;P1;durP2;ratioP2;P2;SDS_P1;SDS_P2;PMS_P1;PMS_P2;Temp;Humidity;BMP_temperature;BMP_pressure;BME280_temperature;BME280_humidity;BME280_pressure;Samples;Min_cycle;Max_cycle;Signal;HPM_P1;HPM_P2
2023/01/20 00:01:27;;;;;;;31.90;20.57;;;;;;;0.14;93.49;100205.81;5035805;28;20584;-79
2023/01/20 00:03:55;;;;;;;39.30;24.53;;;;;;;0.13;93.50;100209.31;5040006;28;20233;-79
2023/01/20 00:06:46;;;;;;;38.70;20.10;;;;;;;0.13;93.52;100209.31;5038534;28;20222;-80
2023/01/20 00:09:17;;;;;;;35.93;17.67;;;;;;;0.11;93.33;100213.75;5036839;28;20241;-79
2023/01/20 00:11:53;;;;;;;36.67;17.60;;;;;;;0.07;93.42;100204.25;5041301;28;20210;-80
2023/01/20 00:14:26;;;;;;;26.23;15.77;;;;;;;0.05;93.43;100214.75;5037472;28;20228;-80
2023/01/20 00:16:58;;;;;;;32.80;15.63;;;;;;;0.05;93.74;100227.84;5037720;28;20206;-79
2023/01/20 00:19:29;;;;;;;33.13;15.93;;;;;;;0.04;93.80;100225.28;5038478;28;20206;-80
2023/01/20 00:22:02;;;;;;;32.30;17.37;;;;;;;0.05;93.80;100227.00;5034649;28;20238;-80
2023/01/20 00:25:10;;;;;;;28.30;15.13;;;;;;;0.02;93.64;100227.94;5036259;28;20210;-78
2023/01/20 00:27:52;;;;;;;29.50;15.00;;;;;;;0.00;93.84;100235.81;5037143;28;20214;-80
2023/01/20 00:30:22;;;;;;;30.47;16.80;;;;;;;-0.01;93.94;100234.13;5035698;28;20230;-80
2023/01/20 00:32:53;;;;;;;35.83;16.30;;;;;;;-0.03;94.33;100238.56;5037733;28;20226;-80
2023/01/20 00:35:40;;;;;;;27.57;14.87;;;;;;;-0.06;94.03;100246.47;5045137;28;20226;-80
2023/01/20 00:38:09;;;;;;;26.47;15.60;;;;;;;-0.07;94.05;100247.38;5037871;28;20210;-80
2023/01/20 00:40:35;;;;;;;29.03;15.77;;;;;;;-0.06;93.95;100246.47;5034617;28;20293;-79
2023/01/20 00:43:03;;;;;;;28.93;16.27;;;;;;;-0.07;93.89;100250.00;5035696;28;20698;-80
2023/01/20 00:45:29;;;;;;;33.93;16.27;;;;;;;-0.08;93.98;100253.50;5033865;28;20703;-79
2023/01/20 00:47:56;;;;;;;31.83;16.77;;;;;;;-0.08;94.27;100260.50;5036552;28;20206;-80
2023/01/20 00:51:00;;;;;;;30.80;16.03;;;;;;;-0.09;94.16;100257.03;5036040;28;20226;-80
2023/01/20 00:53:37;;;;;;;29.03;15.00;;;;;;;-0.11;94.15;100258.81;5005463;28;20222;-80
2023/01/20 00:56:13;;;;;;;25.43;15.23;;;;;;;-0.11;94.52;100256.19;5034750;28;20272;-80
2023/01/20 00:58:50;;;;;;;29.87;15.90;;;;;;;-0.13;94.48;100265.84;5032549;28;20202;-80
2023/01/20 01:01:26;;;;;;;34.23;16.70;;;;;;;-0.12;94.27;100270.19;5033228;28;20250;-80
2023/01/20 01:03:55;;;;;;;26.50;15.53;;;;;;;-0.11;94.42;100263.19;5035727;28;20236;-80
2023/01/20 01:06:31;;;;;;;26.57;14.43;;;;;;;-0.12;94.28;100266.72;5030692;28;20281;-80
2023/01/20 01:09:04;;;;;;;28.73;15.67;;;;;;;-0.12;94.41;100266.72;5030625;28;20209;-79
2023/01/20 01:11:37;;;;;;;24.37;13.10;;;;;;;-0.12;94.46;100266.72;5036951;28;20206;-80
2023/01/20 01:14:30;;;;;;;;;;;;;;;;;;;;;
2023/01/20 01:17:05;;;;;;;24.87;14.43;;;;;;;-0.13;94.63;100281.56;5028572;28;20217;-80
2023/01/20 01:19:33;;;;;;;29.60;14.80;;;;;;;-0.16;94.58;100281.63;5034343;28;20198;-80
2023/01/20 01:22:06;;;;;;;27.80;14.80;;;;;;;-0.15;94.69;100288.56;5033619;28;20675;-80
2023/01/20 01:24:44;;;;;;;30.63;15.23;;;;;;;-0.16;94.68;100294.72;5033777;28;20210;-80
2023/01/20 01:27:25;;;;;;;25.43;14.20;;;;;;;-0.16;94.58;100294.72;5029372;28;20210;-80
2023/01/20 01:30:02;;;;;;;24.97;15.17;;;;;;;-0.17;94.83;100294.75;5034202;28;20206;-79
2023/01/20 01:32:34;;;;;;;23.27;14.27;;;;;;;-0.19;94.74;100286.97;5036246;28;20213;-80
2023/01/20 01:35:05;;;;;;;24.83;13.53;;;;;;;-0.15;94.72;100292.94;5032949;28;20207;-80
2023/01/20 01:37:35;;;;;;;26.00;14.53;;;;;;;-0.17;94.76;100298.22;5042350;28;20264;-80
2023/01/20 01:40:04;;;;;;;25.47;13.63;;;;;;;-0.15;94.47;100295.56;5030765;28;20260;-78
2023/01/20 01:42:32;;;;;;;25.37;14.17;;;;;;;-0.19;94.77;100300.06;5030441;28;20313;-79
2023/01/20 01:45:28;;;;;;;26.40;13.80;;;;;;;-0.17;94.42;100310.44;5037500;28;20236;-79
2023/01/20 01:48:02;;;;;;;26.80;15.03;;;;;;;-0.18;94.43;100299.13;5023690;28;20285;-78
2023/01/20 01:50:34;;;;;;;25.17;14.83;;;;;;;-0.17;94.39;100307.84;5030241;28;20698;-78
2023/01/20 01:53:00;;;;;;;24.23;14.17;;;;;;;-0.18;94.46;100304.34;5028333;28;20823;-79
2023/01/20 01:55:30;;;;;;;27.20;15.60;;;;;;;-0.18;94.56;100311.38;5033899;28;20198;-79
2023/01/20 01:57:58;;;;;;;28.17;15.17;;;;;;;-0.19;94.33;100307.03;5027956;28;20225;-79
2023/01/20 02:03:44;;;;;;;26.50;14.37;;;;;;;-0.22;94.20;100307.09;5018481;28;20272;-79
2023/01/20 02:06:16;;;;;;;29.07;13.77;;;;;;;-0.24;93.76;100309.75;5031591;28;20624;-79
2023/01/20 02:08:56;;;;;;;18.33;11.27;;;;;;;-0.25;94.07;100302.81;5032918;28;20270;-79
2023/01/20 02:11:25;;;;;;;21.60;13.50;;;;;;;-0.28;94.21;100309.88;5031398;28;20658;-79
2023/01/20 02:13:59;;;;;;;20.20;12.93;;;;;;;-0.25;94.12;100315.88;5032304;28;20606;-79
2023/01/20 02:16:47;;;;;;;23.60;12.87;;;;;;;-0.29;93.94;100311.63;5032503;28;20207;-79
2023/01/20 02:20:03;;;;;;;28.47;14.07;;;;;;;-0.30;93.93;100314.28;5033629;28;20205;-80
2023/01/20 02:22:48;;;;;;;21.63;11.73;;;;;;;-0.31;93.53;100323.03;5020821;28;20234;-79
2023/01/20 02:26:00;;;;;;;21.63;12.60;;;;;;;-0.33;93.70;100324.81;5033200;28;20214;-79
2023/01/20 02:29:05;;;;;;;21.53;12.03;;;;;;;-0.32;93.65;100334.38;5031007;28;20203;-79
2023/01/20 02:32:17;;;;;;;27.40;13.57;;;;;;;-0.34;93.70;100329.19;5025286;28;20305;-79
2023/01/20 02:34:54;;;;;;;22.63;11.33;;;;;;;-0.37;93.89;100319.69;4951525;28;20217;-79
2023/01/20 02:37:28;;;;;;;23.63;12.47;;;;;;;-0.40;93.81;100330.22;5020865;28;20690;-80
2023/01/20 02:40:24;;;;;;;30.53;13.13;;;;;;;-0.39;93.30;100342.41;5032651;28;20325;-80
2023/01/20 02:43:07;;;;;;;30.17;12.80;;;;;;;-0.37;93.64;100338.00;5031474;28;20229;-80
2023/01/20 02:45:55;;;;;;;28.53;12.60;;;;;;;-0.36;93.40;100344.91;5032804;28;20230;-79
2023/01/20 02:48:38;;;;;;;25.97;13.03;;;;;;;-0.38;93.42;100336.28;5030121;28;20233;-80
2023/01/20 02:51:21;;;;;;;24.20;13.63;;;;;;;-0.36;93.35;100351.94;5034187;28;20585;-80
2023/01/20 02:54:00;;;;;;;25.17;12.30;;;;;;;-0.39;93.17;100360.72;5033027;28;20226;-80
2023/01/20 02:59:13;;;;;;;20.10;12.10;;;;;;;-0.38;93.39;100348.50;5030486;28;20293;-80
2023/01/20 03:02:03;;;;;;;25.23;12.47;;;;;;;-0.40;93.34;100359.00;5029645;28;20281;-80
2023/01/20 03:04:46;;;;;;;23.93;13.07;;;;;;;-0.41;93.09;100352.03;5027749;28;20212;-80
2023/01/20 03:07:28;;;;;;;21.30;12.23;;;;;;;-0.42;93.28;100362.53;5031184;28;20305;-80
2023/01/20 03:10:03;;;;;;;28.47;13.03;;;;;;;-0.42;93.09;100357.31;5032585;28;20236;-80
2023/01/20 03:12:41;;;;;;;20.90;11.63;;;;;;;-0.43;93.19;100358.19;5034999;28;20224;-80
2023/01/20 03:15:10;;;;;;;21.30;11.97;;;;;;;-0.42;93.17;100367.75;5042432;22;20576;-73
2023/01/20 03:17:37;;;;;;;21.23;10.80;;;;;;;-0.41;93.39;100369.50;5017623;28;20675;-71
2023/01/20 03:20:06;;;;;;;21.77;11.90;;;;;;;-0.42;93.13;100373.00;5025785;28;20236;-72
2023/01/20 03:22:33;;;;;;;22.03;11.63;;;;;;;-0.41;92.93;100374.72;5026664;28;20225;-71
2023/01/20 03:25:00;;;;;;;26.47;12.67;;;;;;;-0.41;93.04;100372.09;5028505;28;20613;-72
2023/01/20 03:27:27;;;;;;;20.33;11.83;;;;;;;-0.41;92.83;100377.34;5051303;22;20754;-71
2023/01/20 03:29:53;;;;;;;19.63;11.67;;;;;;;-0.41;92.81;100383.44;5043911;28;20201;-70
2023/01/20 03:32:25;;;;;;;18.10;10.27;;;;;;;-0.41;92.84;100375.59;5050603;28;20284;-70
2023/01/20 03:34:53;;;;;;;23.63;11.63;;;;;;;-0.40;92.82;100386.91;5049634;28;20205;-71
2023/01/20 03:37:36;;;;;;;25.40;12.63;;;;;;;-0.42;92.80;100384.31;4996572;28;20324;-71
2023/01/20 03:40:03;;;;;;;21.57;11.53;;;;;;;-0.42;92.74;100383.47;5048839;28;20611;-70
2023/01/20 03:42:34;;;;;;;20.90;12.13;;;;;;;-0.42;92.79;100393.94;5052982;28;20221;-71
2023/01/20 03:45:06;;;;;;;24.67;12.50;;;;;;;-0.42;92.57;100394.78;5051378;28;20448;-70
2023/01/20 03:47:52;;;;;;;26.10;13.17;;;;;;;-0.40;92.71;100397.38;5050155;28;20241;-69
2023/01/20 03:50:31;;;;;;;22.23;12.00;;;;;;;-0.40;92.85;100402.59;5046758;28;20205;-71
2023/01/20 03:53:04;;;;;;;25.30;13.23;;;;;;;-0.41;92.69;100406.13;5047759;28;20197;-70
2023/01/20 03:55:37;;;;;;;28.30;12.20;;;;;;;-0.39;92.66;100406.94;5051061;28;20209;-70
2023/01/20 03:58:08;;;;;;;24.50;12.97;;;;;;;-0.39;92.74;100404.34;5051444;28;20213;-71
2023/01/20 04:00:37;;;;;;;23.67;13.27;;;;;;;-0.39;92.93;100414.78;5048557;28;20205;-71
2023/01/20 04:03:08;;;;;;;23.03;13.03;;;;;;;-0.38;92.82;100413.91;5046291;28;20233;-71
2023/01/20 04:05:35;;;;;;;27.20;12.60;;;;;;;-0.39;92.85;100415.66;5045347;28;20434;-71
2023/01/20 04:08:08;;;;;;;24.60;12.27;;;;;;;-0.39;92.83;100418.28;5045596;28;20213;-70
2023/01/20 04:10:38;;;;;;;28.07;12.93;;;;;;;-0.38;92.68;100421.75;5043860;28;20200;-70
2023/01/20 04:13:05;;;;;;;25.40;13.27;;;;;;;-0.38;93.10;100429.59;5048292;28;20694;-71
2023/01/20 04:15:34;;;;;;;25.00;12.67;;;;;;;-0.39;92.50;100430.50;5049376;28;20210;-70
2023/01/20 04:18:11;;;;;;;27.30;12.57;;;;;;;-0.41;92.61;100427.03;5047291;28;20676;-70
2023/01/20 04:20:38;;;;;;;26.37;13.27;;;;;;;-0.43;92.35;100429.69;5050111;28;20216;-70
2023/01/20 04:23:08;;;;;;;32.70;14.63;;;;;;;-0.46;92.59;100431.50;5044662;28;20704;-71
2023/01/20 04:25:35;;;;;;;27.77;13.63;;;;;;;-0.46;92.59;100431.50;5046539;28;20209;-71
2023/01/20 04:28:01;;;;;;;25.70;14.37;;;;;;;-0.48;92.13;100438.53;5047785;28;20198;-71
2023/01/20 04:30:28;;;;;;;28.23;14.97;;;;;;;-0.51;92.17;100451.66;5040380;28;20213;-70
2023/01/20 04:32:54;;;;;;;30.77;15.73;;;;;;;-0.53;91.82;100453.44;5037879;28;20574;-71
2023/01/20 04:35:21;;;;;;;34.03;16.10;;;;;;;-0.56;92.03;100454.41;5037984;28;20672;-71
2023/01/20 04:37:47;;;;;;;34.53;17.93;;;;;;;-0.58;91.83;100456.19;5044000;28;20233;-71
2023/01/20 04:40:15;;;;;;;34.27;17.10;;;;;;;-0.61;91.71;100456.25;5044290;28;20198;-69
2023/01/20 04:42:42;;;;;;;22.90;13.73;;;;;;;-0.64;91.75;100447.59;5044152;28;20606;-70
2023/01/20 04:45:14;;;;;;;27.70;14.03;;;;;;;-0.66;91.35;100455.47;5045715;28;20210;-71
2023/01/20 04:47:40;;;;;;;26.80;13.60;;;;;;;-0.67;91.73;100463.34;5044479;28;20233;-71
2023/01/20 04:50:09;;;;;;;26.20;13.43;;;;;;;-0.71;91.60;100455.56;5049354;28;20824;-71
2023/01/20 04:52:35;;;;;;;27.73;13.93;;;;;;;-0.72;92.03;100469.53;5039217;28;20205;-70
2023/01/20 04:55:02;;;;;;;31.10;14.20;;;;;;;-0.75;91.90;100459.16;5048847;28;20281;-71
2023/01/20 04:57:29;;;;;;;27.13;13.07;;;;;;;-0.76;91.87;100462.66;5044902;28;20221;-71
2023/01/20 04:59:56;;;;;;;28.93;13.70;;;;;;;-0.77;91.75;100455.72;5038702;28;20488;-70
2023/01/20 05:02:22;;;;;;;27.50;13.40;;;;;;;-0.79;91.78;100459.25;5041030;28;20206;-71
2023/01/20 05:04:49;;;;;;;27.10;13.50;;;;;;;-0.79;91.97;100465.31;5047451;28;20209;-71
2023/01/20 05:07:15;;;;;;;30.40;13.13;;;;;;;-0.81;91.88;100461.88;5043852;28;20226;-70
2023/01/20 05:09:42;;;;;;;28.07;15.03;;;;;;;-0.81;91.98;100466.25;5046018;28;20202;-71
2023/01/20 05:12:08;;;;;;;23.97;13.40;;;;;;;-0.82;92.14;100470.63;5048042;28;20540;-71
2023/01/20 05:14:36;;;;;;;26.63;14.20;;;;;;;-0.80;91.87;100473.19;5040692;28;20216;-71
2023/01/20 05:17:02;;;;;;;30.23;13.67;;;;;;;-0.81;92.43;100467.09;5040289;28;20233;-71
2023/01/20 05:19:29;;;;;;;25.87;13.67;;;;;;;-0.81;92.27;100474.09;5043620;28;20711;-70
2023/01/20 05:21:55;;;;;;;27.37;13.73;;;;;;;-0.81;92.22;100468.84;5042763;28;20202;-71
2023/01/20 05:24:22;;;;;;;30.53;13.13;;;;;;;-0.80;92.42;100475.81;5041445;28;20236;-70
2023/01/20 05:26:49;;;;;;;24.70;13.23;;;;;;;-0.78;92.77;100487.09;5034248;28;20245;-70
2023/01/20 05:29:15;;;;;;;28.77;14.17;;;;;;;-0.79;92.58;100481.03;5041674;28;20205;-72
2023/01/20 05:31:43;;;;;;;28.40;13.67;;;;;;;-0.79;92.62;100475.78;5041109;28;20248;-71
2023/01/20 05:34:10;;;;;;;29.23;12.93;;;;;;;-0.77;92.79;100478.38;5036335;28;20217;-69
2023/01/20 05:36:37;;;;;;;28.80;13.57;;;;;;;-0.76;92.84;100483.56;5038980;28;20222;-71
2023/01/20 05:39:03;;;;;;;28.50;14.27;;;;;;;-0.72;92.83;100484.38;5042332;28;20607;-71
2023/01/20 05:41:30;;;;;;;23.80;13.37;;;;;;;-0.73;92.79;100485.28;5038235;28;20663;-70
2023/01/20 05:43:56;;;;;;;25.70;12.93;;;;;;;-0.72;93.00;100490.44;5034565;28;20717;-69
2023/01/20 05:46:22;;;;;;;23.70;12.50;;;;;;;-0.71;92.90;100504.38;5041470;28;20225;-70
2023/01/20 05:48:50;;;;;;;32.20;13.43;;;;;;;-0.72;92.96;100502.69;5046185;28;20209;-69
2023/01/20 05:51:17;;;;;;;28.73;14.13;;;;;;;-0.74;92.59;100505.34;5046548;28;20205;-71
2023/01/20 05:53:43;;;;;;;29.33;14.83;;;;;;;-0.75;92.46;100514.06;5046998;28;20217;-69
2023/01/20 05:56:11;;;;;;;26.67;13.47;;;;;;;-0.77;92.57;100517.59;5043271;28;20233;-71
2023/01/20 05:58:38;;;;;;;24.60;13.53;;;;;;;-0.80;91.96;100520.25;5039615;28;20206;-71
2023/01/20 06:01:05;;;;;;;25.80;14.17;;;;;;;-0.85;91.79;100514.25;5043095;28;20800;-71
2023/01/20 06:03:32;;;;;;;28.30;14.73;;;;;;;-0.88;91.78;100506.47;5038310;28;20218;-71
2023/01/20 06:06:04;;;;;;;29.07;14.03;;;;;;;-0.90;91.32;100514.38;5037194;28;20225;-71
2023/01/20 06:08:30;;;;;;;35.00;14.77;;;;;;;-0.89;91.63;100512.56;5035888;28;20282;-71
2023/01/20 06:10:58;;;;;;;41.60;18.87;;;;;;;-0.90;91.28;100511.75;5045960;28;20219;-72
2023/01/20 06:13:24;;;;;;;46.47;19.83;;;;;;;-0.87;91.66;100527.34;5041036;28;20208;-70
2023/01/20 06:15:52;;;;;;;25.03;13.37;;;;;;;-0.87;91.78;100522.13;5041451;28;20237;-71
2023/01/20 06:18:18;;;;;;;27.57;12.87;;;;;;;-0.86;91.30;100536.91;5038993;28;20233;-69
2023/01/20 06:20:45;;;;;;;30.27;14.17;;;;;;;-0.90;91.39;100543.13;5037795;28;20628;-71
2023/01/20 06:23:13;;;;;;;33.83;13.77;;;;;;;-0.97;90.97;100546.72;5043838;28;20240;-70
2023/01/20 06:25:40;;;;;;;27.83;13.37;;;;;;;-1.04;91.14;100555.56;5038415;28;20248;-70
2023/01/20 06:28:07;;;;;;;44.57;17.87;;;;;;;-1.10;91.06;100555.69;5033121;28;20244;-70
2023/01/20 06:30:34;;;;;;;56.83;26.17;;;;;;;-1.15;91.14;100547.03;5040317;28;20724;-70
2023/01/20 06:33:00;;;;;;;30.67;15.40;;;;;;;-1.21;91.13;100552.38;5044868;28;20199;-70
2023/01/20 06:35:27;;;;;;;28.57;14.33;;;;;;;-1.24;91.28;100547.19;5047350;28;20214;-70
2023/01/20 06:37:57;;;;;;;28.27;17.10;;;;;;;-1.27;91.23;100552.50;5040305;28;20205;-70
2023/01/20 06:40:25;;;;;;;31.60;14.20;;;;;;;-1.31;91.44;100562.13;5035353;28;20213;-70
2023/01/20 06:42:52;;;;;;;29.37;14.63;;;;;;;-1.30;91.11;100560.38;5038765;28;20587;-70
2023/01/20 06:45:18;;;;;;;26.77;13.93;;;;;;;-1.29;91.80;100572.56;5041226;28;20590;-70
2023/01/20 06:47:48;;;;;;;24.90;14.03;;;;;;;-1.28;91.56;100574.28;5038693;28;20233;-70
2023/01/20 06:50:15;;;;;;;30.57;16.13;;;;;;;-1.27;92.03;100578.63;5035989;28;20206;-70
2023/01/20 06:52:41;;;;;;;34.13;16.37;;;;;;;-1.26;92.52;100578.59;5038533;28;20229;-69
2023/01/20 06:55:08;;;;;;;26.43;14.93;;;;;;;-1.27;92.46;100579.47;5038101;28;20701;-69
2023/01/20 06:57:36;;;;;;;28.57;15.80;;;;;;;-1.26;92.26;100569.91;5041810;28;20222;-70
2023/01/20 07:00:04;;;;;;;31.63;15.73;;;;;;;-1.25;92.47;100579.44;5040412;28;20636;-70
2023/01/20 07:02:30;;;;;;;32.77;16.40;;;;;;;-1.25;92.49;100587.25;5034846;28;20205;-70
2023/01/20 07:04:58;;;;;;;29.17;15.97;;;;;;;-1.26;92.61;100583.81;5031910;28;20221;-70
2023/01/20 07:07:25;;;;;;;35.27;18.83;;;;;;;-1.25;92.49;100595.09;5033415;28;20734;-70
2023/01/20 07:09:54;;;;;;;31.27;17.23;;;;;;;-1.25;92.84;100597.72;5033339;28;20734;-70
2023/01/20 07:12:20;;;;;;;37.53;17.83;;;;;;;-1.28;92.83;100603.88;5030811;28;20214;-70
2023/01/20 07:14:48;;;;;;;38.83;19.67;;;;;;;-1.30;93.11;100604.78;5033580;28;20306;-70
2023/01/20 07:17:14;;;;;;;40.87;18.63;;;;;;;-1.31;93.20;100609.16;5034984;28;20574;-70
2023/01/20 07:19:41;;;;;;;35.80;18.83;;;;;;;-1.33;92.70;100597.84;5035240;28;20425;-70
2023/01/20 07:22:07;;;;;;;32.37;18.33;;;;;;;-1.33;93.33;100615.28;5029569;28;20210;-71
2023/01/20 07:24:34;;;;;;;32.17;16.53;;;;;;;-1.33;92.93;100621.38;5034221;28;20221;-70
2023/01/20 07:27:00;;;;;;;36.87;16.33;;;;;;;-1.31;93.00;100619.59;5036345;28;20234;-69
2023/01/20 07:29:27;;;;;;;29.47;15.83;;;;;;;-1.28;93.47;100631.75;5030792;28;20206;-70
2023/01/20 07:31:54;;;;;;;28.30;14.33;;;;;;;-1.27;93.89;100625.66;5033719;28;20206;-70
2023/01/20 07:34:21;;;;;;;25.33;12.67;;;;;;;-1.28;93.33;100640.47;5034760;28;20198;-71
2023/01/20 07:36:47;;;;;;;25.13;13.60;;;;;;;-1.35;92.75;100643.19;5032395;28;20228;-70
2023/01/20 07:39:17;;;;;;;23.73;13.10;;;;;;;-1.43;93.08;100645.88;5034196;28;20209;-70
2023/01/20 07:41:47;;;;;;;26.73;14.33;;;;;;;-1.48;93.14;100648.59;5031089;28;20288;-70
2023/01/20 07:44:14;;;;;;;26.50;13.20;;;;;;;-1.52;93.19;100649.50;5040808;28;20221;-70
2023/01/20 07:46:41;;;;;;;22.50;13.13;;;;;;;-1.54;93.55;100659.09;5040949;28;20229;-70
2023/01/20 07:49:10;;;;;;;24.13;13.37;;;;;;;-1.56;93.22;100653.03;5040182;28;20209;-71
2023/01/20 07:51:36;;;;;;;28.63;14.53;;;;;;;-1.57;93.41;100653.91;5045822;28;20206;-70
2023/01/20 07:54:03;;;;;;;26.37;13.63;;;;;;;-1.60;93.43;100659.19;5041110;28;20282;-70
2023/01/20 07:56:29;;;;;;;28.80;14.73;;;;;;;-1.63;93.12;100655.78;5036724;28;20225;-70
2023/01/20 07:58:57;;;;;;;28.50;14.53;;;;;;;-1.65;93.33;100663.63;5041324;28;20207;-70
2023/01/20 08:01:25;;;;;;;26.87;14.33;;;;;;;-1.67;93.69;100664.53;5037992;28;20206;-71
2023/01/20 08:03:52;;;;;;;29.00;14.97;;;;;;;-1.68;93.74;100660.19;5040882;28;20225;-70
2023/01/20 08:06:22;;;;;;;30.43;14.87;;;;;;;-1.69;93.45;100672.38;5031249;28;20749;-70
2023/01/20 08:08:49;;;;;;;31.03;15.30;;;;;;;-1.71;93.34;100675.88;5042090;28;20213;-70
2023/01/20 08:11:17;;;;;;;33.10;15.43;;;;;;;-1.71;92.96;100681.09;5038885;28;20206;-69
2023/01/20 08:13:44;;;;;;;35.37;17.00;;;;;;;-1.74;93.29;100682.00;5035486;28;20217;-70
2023/01/20 08:16:13;;;;;;;35.77;16.33;;;;;;;-1.77;93.43;100689.88;5035751;28;20761;-70
2023/01/20 08:18:40;;;;;;;29.33;15.40;;;;;;;-1.80;92.88;100693.41;5040553;28;20284;-70
2023/01/20 08:21:08;;;;;;;31.83;15.87;;;;;;;-1.81;93.34;100693.44;5033649;28;20286;-70
2023/01/20 08:23:37;;;;;;;30.57;14.70;;;;;;;-1.84;93.14;100694.31;5036193;28;20232;-69
2023/01/20 08:26:05;;;;;;;27.83;14.47;;;;;;;-1.84;93.14;100701.28;5041564;28;20240;-70
2023/01/20 08:28:33;;;;;;;30.30;15.10;;;;;;;-1.85;93.40;100702.16;5039389;28;20206;-71
2023/01/20 08:31:04;;;;;;;25.77;14.53;;;;;;;-1.86;93.34;100705.66;5047163;28;20758;-70
2023/01/20 08:33:31;;;;;;;29.37;15.70;;;;;;;-1.85;93.63;100710.00;5042789;28;20687;-70
2023/01/20 08:36:03;;;;;;;26.57;14.20;;;;;;;-1.86;93.34;100708.28;5042483;28;20601;-70
2023/01/20 08:38:30;;;;;;;32.40;15.07;;;;;;;-1.85;93.47;100725.66;5038128;28;20218;-69
2023/01/20 08:40:57;;;;;;;31.27;15.83;;;;;;;-1.84;93.61;100719.56;5041238;28;20215;-70
2023/01/20 08:43:24;;;;;;;33.87;17.17;;;;;;;-1.83;93.32;100716.94;5037931;28;20210;-71
2023/01/20 08:45:58;;;;;;;34.03;17.60;;;;;;;-1.80;93.79;100723.88;5046081;28;20794;-70
2023/01/20 08:48:24;;;;;;;35.57;18.07;;;;;;;-1.77;94.16;100724.69;5044019;28;20236;-70
2023/01/20 08:50:51;;;;;;;37.57;17.03;;;;;;;-1.73;94.30;100722.91;5044244;28;20206;-70
2023/01/20 08:53:17;;;;;;;41.97;18.80;;;;;;;-1.70;94.56;100730.69;5045860;28;20202;-71
2023/01/20 08:55:44;;;;;;;38.97;19.10;;;;;;;-1.65;94.95;100733.25;5042830;28;21031;-70
2023/01/20 08:58:11;;;;;;;40.93;20.17;;;;;;;-1.60;95.41;100734.06;5039219;28;20683;-68
2023/01/20 09:00:38;;;;;;;39.70;18.70;;;;;;;-1.54;95.47;100734.84;5042281;28;20206;-71
2023/01/20 09:03:04;;;;;;;35.30;18.10;;;;;;;-1.49;95.55;100740.88;5040055;28;20206;-71
2023/01/20 09:05:31;;;;;;;34.43;16.97;;;;;;;-1.43;96.26;100742.53;5046086;28;20240;-70
2023/01/20 09:07:57;;;;;;;37.50;19.07;;;;;;;-1.35;96.32;100747.66;5045138;28;20210;-71
2023/01/20 09:10:24;;;;;;;36.33;17.53;;;;;;;-1.30;96.34;100745.88;5041351;28;20619;-70
2023/01/20 09:12:50;;;;;;;30.53;17.40;;;;;;;-1.23;96.89;100752.72;5045408;28;20217;-70
2023/01/20 09:15:19;;;;;;;33.10;16.43;;;;;;;-1.16;97.27;100751.75;5043144;28;20205;-70
2023/01/20 09:17:45;;;;;;;31.50;16.50;;;;;;;-1.09;97.59;100761.25;5045081;28;20228;-70
2023/01/20 09:20:12;;;;;;;30.23;16.93;;;;;;;-1.02;97.80;100757.66;5040250;28;20209;-71
2023/01/20 09:22:39;;;;;;;36.63;17.63;;;;;;;-0.94;97.88;100761.03;5052358;28;20339;-71
2023/01/20 09:25:07;;;;;;;37.17;17.53;;;;;;;-0.84;98.41;100764.38;5039702;28;20230;-70
2023/01/20 09:27:33;;;;;;;33.33;16.43;;;;;;;-0.73;98.96;100767.69;5066860;22;20248;-68
2023/01/20 09:29:59;;;;;;;37.17;16.90;;;;;;;-0.61;99.04;100766.63;5039239;28;20213;-68
2023/01/20 09:32:27;;;;;;;31.83;15.67;;;;;;;-0.49;99.47;100769.03;5046979;28;20206;-68
2023/01/20 09:34:55;;;;;;;30.47;17.13;;;;;;;-0.39;99.74;100770.63;5045939;28;20213;-68
2023/01/20 09:45:54;;;;;;;25.27;14.47;;;;;;;-0.08;99.59;100777.06;5045103;28;20716;-68
2023/01/20 09:54:15;;;;;;;23.93;13.10;;;;;;;0.12;98.84;100781.94;5042516;28;20234;-68
2023/01/20 09:56:47;;;;;;;21.97;12.20;;;;;;;0.21;98.04;100787.00;5038733;28;20226;-68
2023/01/20 09:59:22;;;;;;;23.70;11.67;;;;;;;0.25;97.93;100787.78;5040725;28;20201;-68
2023/01/20 10:01:53;;;;;;;21.07;12.60;;;;;;;0.28;97.54;100780.75;5043358;28;20205;-68
2023/01/20 10:04:28;;;;;;;24.37;13.10;;;;;;;0.33;97.08;100786.78;5041643;28;20222;-68
2023/01/20 10:07:01;;;;;;;21.30;12.53;;;;;;;0.37;96.75;100790.16;5046634;28;20239;-68
2023/01/20 10:09:36;;;;;;;20.23;11.03;;;;;;;0.43;96.12;100795.31;5039436;28;20206;-68
2023/01/20 10:12:09;;;;;;;19.33;11.07;;;;;;;0.47;95.73;100796.13;5043755;28;20201;-69
2023/01/20 10:14:41;;;;;;;18.97;12.17;;;;;;;0.51;95.36;100796.03;5039247;28;20574;-67
2023/01/20 10:17:15;;;;;;;20.83;11.37;;;;;;;0.55;94.43;100804.66;5038574;28;20668;-69
2023/01/20 10:19:49;;;;;;;20.17;11.17;;;;;;;0.58;94.33;100812.47;5040722;28;20210;-67
2023/01/20 10:22:20;;;;;;;24.30;12.57;;;;;;;0.62;93.89;100803.66;5041826;28;20217;-68
2023/01/20 10:24:54;;;;;;;17.53;11.33;;;;;;;0.66;93.51;100806.19;5042072;28;20611;-69
2023/01/20 10:27:24;;;;;;;18.07;10.80;;;;;;;0.73;93.23;100806.06;5042814;28;20339;-69
2023/01/20 10:29:57;;;;;;;15.37;10.47;;;;;;;0.78;92.68;100806.84;5045012;28;20645;-68
2023/01/20 10:32:32;;;;;;;20.37;10.63;;;;;;;0.83;91.63;100812.84;5040660;28;20206;-68
2023/01/20 10:35:07;;;;;;;19.47;10.97;;;;;;;0.91;91.21;100810.91;5036923;28;20570;-68
2023/01/20 10:37:35;;;;;;;18.43;9.97;;;;;;;0.97;90.84;100806.41;5036526;28;20224;-68
2023/01/20 10:40:17;;;;;;;20.00;11.47;;;;;;;1.00;90.19;100808.09;5039778;28;20208;-69
2023/01/20 10:42:48;;;;;;;18.83;11.50;;;;;;;1.06;89.63;100808.00;5037067;28;20214;-68
2023/01/20 10:45:22;;;;;;;19.60;10.83;;;;;;;1.09;88.92;100807.88;5034481;28;20325;-68
2023/01/20 10:47:58;;;;;;;22.43;11.50;;;;;;;1.15;88.66;100820.03;5037922;28;20231;-68
2023/01/20 10:50:45;;;;;;;16.23;9.20;;;;;;;1.16;88.47;100817.38;5039428;28;20583;-68
2023/01/20 10:53:32;;;;;;;17.23;9.80;;;;;;;1.19;87.90;100819.94;5034499;28;20198;-69
2023/01/20 10:56:10;;;;;;;14.53;9.20;;;;;;;1.22;87.71;100819.00;5036913;28;20226;-68
2023/01/20 10:58:40;;;;;;;12.73;9.20;;;;;;;1.27;86.49;100827.59;5036344;28;20197;-68
2023/01/20 11:01:08;;;;;;;15.70;9.43;;;;;;;1.29;86.83;100825.81;5036314;28;20240;-68
2023/01/20 11:03:39;;;;;;;13.63;9.53;;;;;;;1.30;86.02;100827.53;5038829;28;20691;-68
2023/01/20 11:06:15;;;;;;;18.77;8.83;;;;;;;1.35;86.14;100828.31;5036595;28;20233;-68
2023/01/20 11:08:42;;;;;;;17.53;9.30;;;;;;;1.36;85.74;100833.53;5034999;28;20206;-69
2023/01/20 11:11:12;;;;;;;17.13;11.60;;;;;;;1.39;84.89;100837.84;5038035;28;20202;-69
2023/01/20 11:13:39;;;;;;;16.70;9.77;;;;;;;1.42;84.98;100836.91;5035468;28;20229;-68
2023/01/20 11:16:15;;;;;;;17.50;9.73;;;;;;;1.41;84.64;100836.06;5034699;28;20194;-68
2023/01/20 11:18:42;;;;;;;18.50;9.70;;;;;;;1.42;83.83;100840.41;5038808;28;20212;-69
2023/01/20 11:21:12;;;;;;;14.83;9.13;;;;;;;1.41;83.99;100841.31;5036089;28;20212;-68
2023/01/20 11:23:40;;;;;;;17.93;9.63;;;;;;;1.44;83.58;100843.81;5042340;28;20198;-69
2023/01/20 11:26:15;;;;;;;18.13;10.93;;;;;;;1.44;82.95;100848.22;5036621;28;20428;-68
2023/01/20 11:28:50;;;;;;;16.57;9.63;;;;;;;1.41;83.42;100846.56;5037384;28;20213;-68
2023/01/20 11:31:17;;;;;;;18.07;10.00;;;;;;;1.41;83.44;100854.44;5038624;28;20268;-68
2023/01/20 11:34:00;;;;;;;19.47;10.73;;;;;;;1.43;83.30;100860.50;5039460;28;20587;-68
2023/01/20 11:36:28;;;;;;;16.47;10.70;;;;;;;1.44;82.60;100862.19;5036130;28;20228;-68
2023/01/20 11:38:57;;;;;;;15.33;9.47;;;;;;;1.47;82.59;100861.28;5044729;28;21102;-68
2023/01/20 11:41:25;;;;;;;16.57;10.00;;;;;;;1.48;82.42;100861.25;5046787;28;20198;-69
2023/01/20 11:43:54;;;;;;;18.10;11.50;;;;;;;1.49;82.47;100865.59;5045125;28;20202;-68
2023/01/20 11:46:27;;;;;;;17.63;10.43;;;;;;;1.49;82.13;100872.59;5043795;28;20763;-68
2023/01/20 11:49:15;;;;;;;13.50;9.60;;;;;;;1.48;82.39;100863.00;5040755;28;20212;-68
2023/01/20 11:51:48;;;;;;;18.57;8.70;;;;;;;1.48;81.70;100863.88;5049201;28;20232;-68